sensor_id;sensor_type;location;lat;lon;timestamp;temperature;humidity
19017;DHT22;9641;51.494;6.670;2024-01-15T00:00:14;1.30;99.90
19017;DHT22;9641;51.494;6.670;2024-01-15T00:02:41;1.30;99.90
19017;DHT22;9641;51.494;6.670;2024-01-15T00:05:08;1.30;99.90
19017;DHT22;9641;51.494;6.670;2024-01-15T00:07:35;1.30;99.90
19017;DHT22;9641;51.494;6.670;2024-01-15T00:10:03;1.30;99.90
19017;DHT22;9641;51.494;6.670;2024-01-15T00:12:30;1.30;99.90
19017;DHT22;9641;51.494;6.670;2024-01-15T00:14:59;1.40;99.90
19017;DHT22;9641;51.494;6.670;2024-01-15T00:17:26;1.40;99.90
19017;DHT22;9641;51.494;6.670;2024-01-15T00:19:53;1.40;99.90
19017;DHT22;9641;51.494;6.670;2024-01-15T00:22:20;1.30;99.90
19017;DHT22;9641;51.494;6.670;2024-01-15T00:24:48;1.40;99.90
19017;DHT22;9641;51.494;6.670;2024-01-15T00:27:15;1.40;99.90
19017;DHT22;9641;51.494;6.670;2024-01-15T00:29:41;1.40;99.90
19017;DHT22;9641;51.494;6.670;2024-01-15T00:32:10;1.50;99.90
19017;DHT22;9641;51.494;6.670;2024-01-15T00:34:37;1.40;99.90
19017;DHT22;9641;51.494;6.670;2024-01-15T00:37:10;1.40;99.90
19017;DHT22;9641;51.494;6.670;2024-01-15T00:39:37;1.40;99.90
19017;DHT22;9641;51.494;6.670;2024-01-15T00:42:07;1.40;99.90
19017;DHT22;9641;51.494;6.670;2024-01-15T00:44:38;1.30;99.90
19017;DHT22;9641;51.494;6.670;2024-01-15T00:47:05;1.30;99.90
19017;DHT22;9641;51.494;6.670;2024-01-15T00:49:33;1.30;99.90
19017;DHT22;9641;51.494;6.670;2024-01-15T00:52:01;1.30;99.90
19017;DHT22;9641;51.494;6.670;2024-01-15T00:54:28;1.20;99.90
19017;DHT22;9641;51.494;6.670;2024-01-15T00:56:55;1.30;99.90
19017;DHT22;9641;51.494;6.670;2024-01-15T00:59:22;1.40;99.90
19017;DHT22;9641;51.494;6.670;2024-01-15T01:01:49;1.40;99.90
19017;DHT22;9641;51.494;6.670;2024-01-15T01:04:17;1.40;99.90
19017;DHT22;9641;51.494;6.670;2024-01-15T01:06:45;1.40;99.90
19017;DHT22;9641;51.494;6.670;2024-01-15T01:09:12;1.40;99.90
19017;DHT22;9641;51.494;6.670;2024-01-15T01:11:39;1.40;99.90
19017;DHT22;9641;51.494;6.670;2024-01-15T01:14:06;1.40;99.90
19017;DHT22;9641;51.494;6.670;2024-01-15T01:16:33;1.40;99.90
19017;DHT22;9641;51.494;6.670;2024-01-15T01:19:04;1.40;99.90
19017;DHT22;9641;51.494;6.670;2024-01-15T01:21:32;1.40;99.90
19017;DHT22;9641;51.494;6.670;2024-01-15T01:24:01;1.40;99.90
19017;DHT22;9641;51.494;6.670;2024-01-15T01:26:28;1.40;99.90
19017;DHT22;9641;51.494;6.670;2024-01-15T01:28:55;1.40;99.90
19017;DHT22;9641;51.494;6.670;2024-01-15T01:31:23;1.40;99.90
19017;DHT22;9641;51.494;6.670;2024-01-15T01:33:50;1.50;99.90
19017;DHT22;9641;51.494;6.670;2024-01-15T01:36:17;1.40;99.90
19017;DHT22;9641;51.494;6.670;2024-01-15T01:38:44;1.40;99.90
19017;DHT22;9641;51.494;6.670;2024-01-15T01:41:13;1.40;99.90
19017;DHT22;9641;51.494;6.670;2024-01-15T01:43:40;1.40;99.90
19017;DHT22;9641;51.494;6.670;2024-01-15T01:46:08;1.50;99.90
19017;DHT22;9641;51.494;6.670;2024-01-15T01:48:35;1.50;99.90
19017;DHT22;9641;51.494;6.670;2024-01-15T01:51:03;1.50;99.90
19017;DHT22;9641;51.494;6.670;2024-01-15T01:53:32;1.50;99.90
19017;DHT22;9641;51.494;6.670;2024-01-15T01:56:00;1.50;99.90
19017;DHT22;9641;51.494;6.670;2024-01-15T01:58:31;1.40;99.90
19017;DHT22;9641;51.494;6.670;2024-01-15T02:00:58;1.40;99.90
19017;DHT22;9641;51.494;6.670;2024-01-15T02:03:29;1.40;99.90
19017;DHT22;9641;51.494;6.670;2024-01-15T02:05:59;1.40;99.90
19017;DHT22;9641;51.494;6.670;2024-01-15T02:08:27;1.50;99.90
19017;DHT22;9641;51.494;6.670;2024-01-15T02:10:55;1.50;99.90
19017;DHT22;9641;51.494;6.670;2024-01-15T02:13:22;1.50;99.90
19017;DHT22;9641;51.494;6.670;2024-01-15T02:15:53;1.50;99.90
19017;DHT22;9641;51.494;6.670;2024-01-15T02:18:21;1.50;99.90
19017;DHT22;9641;51.494;6.670;2024-01-15T02:20:48;1.50;99.90
19017;DHT22;9641;51.494;6.670;2024-01-15T02:23:17;1.50;99.90
19017;DHT22;9641;51.494;6.670;2024-01-15T02:25:47;1.50;99.90
19017;DHT22;9641;51.494;6.670;2024-01-15T02:28:15;1.50;99.90
19017;DHT22;9641;51.494;6.670;2024-01-15T02:30:43;1.50;99.90
19017;DHT22;9641;51.494;6.670;2024-01-15T02:33:11;1.40;99.90
19017;DHT22;9641;51.494;6.670;2024-01-15T02:35:39;1.40;99.90
19017;DHT22;9641;51.494;6.670;2024-01-15T02:38:09;1.50;99.90
19017;DHT22;9641;51.494;6.670;2024-01-15T02:40:39;1.50;99.90
19017;DHT22;9641;51.494;6.670;2024-01-15T02:43:06;1.50;99.90
19017;DHT22;9641;51.494;6.670;2024-01-15T02:45:34;1.50;99.90
19017;DHT22;9641;51.494;6.670;2024-01-15T02:48:02;1.50;99.90
19017;DHT22;9641;51.494;6.670;2024-01-15T02:50:32;1.50;99.90
19017;DHT22;9641;51.494;6.670;2024-01-15T02:53:03;1.50;99.90
19017;DHT22;9641;51.494;6.670;2024-01-15T02:55:31;1.50;99.90
19017;DHT22;9641;51.494;6.670;2024-01-15T02:58:01;1.50;99.90
19017;DHT22;9641;51.494;6.670;2024-01-15T03:00:29;1.50;99.90
19017;DHT22;9641;51.494;6.670;2024-01-15T03:03:00;1.50;99.90
19017;DHT22;9641;51.494;6.670;2024-01-15T03:05:28;1.50;99.90
19017;DHT22;9641;51.494;6.670;2024-01-15T03:07:59;1.50;99.90
19017;DHT22;9641;51.494;6.670;2024-01-15T03:10:27;1.40;99.90
19017;DHT22;9641;51.494;6.670;2024-01-15T03:12:54;1.40;99.90
19017;DHT22;9641;51.494;6.670;2024-01-15T03:15:33;1.40;99.90
19017;DHT22;9641;51.494;6.670;2024-01-15T03:18:00;1.40;99.90
19017;DHT22;9641;51.494;6.670;2024-01-15T03:20:28;1.40;99.90
19017;DHT22;9641;51.494;6.670;2024-01-15T03:22:55;1.40;99.90
19017;DHT22;9641;51.494;6.670;2024-01-15T03:25:23;1.40;99.90
19017;DHT22;9641;51.494;6.670;2024-01-15T03:27:51;1.40;99.90
19017;DHT22;9641;51.494;6.670;2024-01-15T03:30:20;1.30;99.90
19017;DHT22;9641;51.494;6.670;2024-01-15T03:32:50;1.30;99.90
19017;DHT22;9641;51.494;6.670;2024-01-15T03:35:17;1.40;99.90
19017;DHT22;9641;51.494;6.670;2024-01-15T03:37:46;1.40;99.90
19017;DHT22;9641;51.494;6.670;2024-01-15T03:40:13;1.40;99.90
19017;DHT22;9641;51.494;6.670;2024-01-15T03:42:41;1.30;99.90
19017;DHT22;9641;51.494;6.670;2024-01-15T03:45:12;1.30;99.90
19017;DHT22;9641;51.494;6.670;2024-01-15T03:47:39;1.40;99.90
19017;DHT22;9641;51.494;6.670;2024-01-15T03:50:44;1.40;99.90
19017;DHT22;9641;51.494;6.670;2024-01-15T03:53:12;1.40;99.90
19017;DHT22;9641;51.494;6.670;2024-01-15T03:55:44;1.40;99.90
19017;DHT22;9641;51.494;6.670;2024-01-15T03:58:12;1.30;99.90
19017;DHT22;9641;51.494;6.670;2024-01-15T04:00:42;1.30;99.90
19017;DHT22;9641;51.494;6.670;2024-01-15T04:03:10;1.30;99.90
19017;DHT22;9641;51.494;6.670;2024-01-15T04:05:38;1.20;99.90
19017;DHT22;9641;51.494;6.670;2024-01-15T04:08:07;1.30;99.90
19017;DHT22;9641;51.494;6.670;2024-01-15T04:10:35;1.30;99.90
19017;DHT22;9641;51.494;6.670;2024-01-15T04:13:03;1.30;99.90
19017;DHT22;9641;51.494;6.670;2024-01-15T04:15:31;1.30;99.90
19017;DHT22;9641;51.494;6.670;2024-01-15T04:18:08;1.30;99.90
19017;DHT22;9641;51.494;6.670;2024-01-15T04:20:36;1.30;99.90
19017;DHT22;9641;51.494;6.670;2024-01-15T04:23:04;1.30;99.90
19017;DHT22;9641;51.494;6.670;2024-01-15T04:25:34;1.20;99.90
19017;DHT22;9641;51.494;6.670;2024-01-15T04:28:02;1.30;99.90
19017;DHT22;9641;51.494;6.670;2024-01-15T04:30:30;1.30;99.90
19017;DHT22;9641;51.494;6.670;2024-01-15T04:32:58;1.30;99.90
19017;DHT22;9641;51.494;6.670;2024-01-15T04:35:26;1.20;99.90
19017;DHT22;9641;51.494;6.670;2024-01-15T04:38:00;1.20;99.90
19017;DHT22;9641;51.494;6.670;2024-01-15T04:40:30;1.20;99.90
19017;DHT22;9641;51.494;6.670;2024-01-15T04:43:00;1.30;99.90
19017;DHT22;9641;51.494;6.670;2024-01-15T04:45:29;1.30;99.90
19017;DHT22;9641;51.494;6.670;2024-01-15T04:48:00;1.30;99.90
19017;DHT22;9641;51.494;6.670;2024-01-15T04:50:28;1.30;99.90
19017;DHT22;9641;51.494;6.670;2024-01-15T04:52:56;1.40;99.90
19017;DHT22;9641;51.494;6.670;2024-01-15T04:55:23;1.40;99.90
19017;DHT22;9641;51.494;6.670;2024-01-15T04:57:51;1.40;99.90
19017;DHT22;9641;51.494;6.670;2024-01-15T05:00:19;1.40;99.90
19017;DHT22;9641;51.494;6.670;2024-01-15T05:02:47;1.40;99.90
19017;DHT22;9641;51.494;6.670;2024-01-15T05:05:15;1.40;99.90
19017;DHT22;9641;51.494;6.670;2024-01-15T05:07:43;1.40;99.90
19017;DHT22;9641;51.494;6.670;2024-01-15T05:10:10;1.40;99.90
19017;DHT22;9641;51.494;6.670;2024-01-15T05:12:38;1.40;99.90
19017;DHT22;9641;51.494;6.670;2024-01-15T05:15:07;1.40;99.90
19017;DHT22;9641;51.494;6.670;2024-01-15T05:17:37;1.40;99.90
19017;DHT22;9641;51.494;6.670;2024-01-15T05:20:05;1.50;99.90
19017;DHT22;9641;51.494;6.670;2024-01-15T05:22:33;1.50;99.90
19017;DHT22;9641;51.494;6.670;2024-01-15T05:25:02;1.50;99.90
19017;DHT22;9641;51.494;6.670;2024-01-15T05:27:29;1.50;99.90
19017;DHT22;9641;51.494;6.670;2024-01-15T05:29:57;1.50;99.90
19017;DHT22;9641;51.494;6.670;2024-01-15T05:32:25;1.50;99.90
19017;DHT22;9641;51.494;6.670;2024-01-15T05:34:54;1.50;99.90
19017;DHT22;9641;51.494;6.670;2024-01-15T05:37:23;1.50;99.90
19017;DHT22;9641;51.494;6.670;2024-01-15T05:39:51;1.50;99.90
19017;DHT22;9641;51.494;6.670;2024-01-15T05:42:19;1.60;99.90
19017;DHT22;9641;51.494;6.670;2024-01-15T05:44:50;1.60;99.90
19017;DHT22;9641;51.494;6.670;2024-01-15T05:47:18;1.60;99.90
19017;DHT22;9641;51.494;6.670;2024-01-15T05:49:46;1.70;99.90
19017;DHT22;9641;51.494;6.670;2024-01-15T05:52:16;1.70;99.90
19017;DHT22;9641;51.494;6.670;2024-01-15T05:54:44;1.70;99.90
19017;DHT22;9641;51.494;6.670;2024-01-15T05:57:12;1.70;99.90
19017;DHT22;9641;51.494;6.670;2024-01-15T05:59:42;1.70;99.90
19017;DHT22;9641;51.494;6.670;2024-01-15T06:02:14;1.80;99.90
19017;DHT22;9641;51.494;6.670;2024-01-15T06:04:42;1.70;99.90
19017;DHT22;9641;51.494;6.670;2024-01-15T06:07:13;1.70;99.90
19017;DHT22;9641;51.494;6.670;2024-01-15T06:09:43;1.70;99.90
19017;DHT22;9641;51.494;6.670;2024-01-15T06:12:11;1.70;99.90
19017;DHT22;9641;51.494;6.670;2024-01-15T06:14:38;1.80;99.90
19017;DHT22;9641;51.494;6.670;2024-01-15T06:17:10;1.80;99.90
19017;DHT22;9641;51.494;6.670;2024-01-15T06:19:40;1.80;99.90
19017;DHT22;9641;51.494;6.670;2024-01-15T06:22:08;1.80;99.90
19017;DHT22;9641;51.494;6.670;2024-01-15T06:24:36;1.80;99.90
19017;DHT22;9641;51.494;6.670;2024-01-15T06:27:06;1.80;99.90
19017;DHT22;9641;51.494;6.670;2024-01-15T06:29:38;1.80;99.90
19017;DHT22;9641;51.494;6.670;2024-01-15T06:32:06;1.80;99.90
19017;DHT22;9641;51.494;6.670;2024-01-15T06:34:33;1.80;99.90
19017;DHT22;9641;51.494;6.670;2024-01-15T06:37:04;1.80;99.90
19017;DHT22;9641;51.494;6.670;2024-01-15T06:39:32;1.80;99.90
19017;DHT22;9641;51.494;6.670;2024-01-15T06:42:00;1.80;99.90
19017;DHT22;9641;51.494;6.670;2024-01-15T06:44:32;1.80;99.90
19017;DHT22;9641;51.494;6.670;2024-01-15T06:47:00;1.70;99.90
19017;DHT22;9641;51.494;6.670;2024-01-15T06:49:32;1.80;99.90
19017;DHT22;9641;51.494;6.670;2024-01-15T06:52:01;1.80;99.90
19017;DHT22;9641;51.494;6.670;2024-01-15T06:54:28;1.70;99.90
19017;DHT22;9641;51.494;6.670;2024-01-15T06:56:56;1.70;99.90
19017;DHT22;9641;51.494;6.670;2024-01-15T06:59:24;1.70;99.90
19017;DHT22;9641;51.494;6.670;2024-01-15T07:01:53;1.70;99.90
19017;DHT22;9641;51.494;6.670;2024-01-15T07:04:21;1.70;99.90
19017;DHT22;9641;51.494;6.670;2024-01-15T07:06:48;1.70;99.90
19017;DHT22;9641;51.494;6.670;2024-01-15T07:09:16;1.70;99.90
19017;DHT22;9641;51.494;6.670;2024-01-15T07:11:46;1.70;99.90
19017;DHT22;9641;51.494;6.670;2024-01-15T07:14:14;1.70;99.90
19017;DHT22;9641;51.494;6.670;2024-01-15T07:16:42;1.70;99.90
19017;DHT22;9641;51.494;6.670;2024-01-15T07:19:12;1.80;99.90
19017;DHT22;9641;51.494;6.670;2024-01-15T07:21:39;1.80;99.90
19017;DHT22;9641;51.494;6.670;2024-01-15T07:24:09;1.70;99.90
19017;DHT22;9641;51.494;6.670;2024-01-15T07:26:37;1.70;99.90
19017;DHT22;9641;51.494;6.670;2024-01-15T07:29:05;1.60;99.90
19017;DHT22;9641;51.494;6.670;2024-01-15T07:31:32;1.60;99.90
19017;DHT22;9641;51.494;6.670;2024-01-15T07:34:02;1.60;99.90
19017;DHT22;9641;51.494;6.670;2024-01-15T07:36:31;1.60;99.90
19017;DHT22;9641;51.494;6.670;2024-01-15T07:38:59;1.50;99.90
19017;DHT22;9641;51.494;6.670;2024-01-15T07:41:27;1.60;99.90
19017;DHT22;9641;51.494;6.670;2024-01-15T07:43:54;1.60;99.90
19017;DHT22;9641;51.494;6.670;2024-01-15T07:46:22;1.70;99.90
19017;DHT22;9641;51.494;6.670;2024-01-15T07:48:50;1.60;99.90
19017;DHT22;9641;51.494;6.670;2024-01-15T07:51:23;1.50;99.90
19017;DHT22;9641;51.494;6.670;2024-01-15T07:53:53;1.60;99.90
19017;DHT22;9641;51.494;6.670;2024-01-15T07:56:22;1.50;99.90
19017;DHT22;9641;51.494;6.670;2024-01-15T07:58:49;1.50;99.90
19017;DHT22;9641;51.494;6.670;2024-01-15T08:01:17;1.50;99.90
19017;DHT22;9641;51.494;6.670;2024-01-15T08:03:44;1.40;99.90
19017;DHT22;9641;51.494;6.670;2024-01-15T08:06:14;1.40;99.90
19017;DHT22;9641;51.494;6.670;2024-01-15T08:08:41;1.40;99.90
19017;DHT22;9641;51.494;6.670;2024-01-15T08:11:10;1.40;99.90
19017;DHT22;9641;51.494;6.670;2024-01-15T08:13:38;1.50;99.90
19017;DHT22;9641;51.494;6.670;2024-01-15T08:16:06;1.40;99.90
19017;DHT22;9641;51.494;6.670;2024-01-15T08:18:33;1.40;99.90
19017;DHT22;9641;51.494;6.670;2024-01-15T08:21:02;1.40;99.90
19017;DHT22;9641;51.494;6.670;2024-01-15T08:23:30;1.50;99.90
19017;DHT22;9641;51.494;6.670;2024-01-15T08:25:57;1.50;99.90
19017;DHT22;9641;51.494;6.670;2024-01-15T08:28:26;1.40;99.90
19017;DHT22;9641;51.494;6.670;2024-01-15T08:30:53;1.30;99.90
19017;DHT22;9641;51.494;6.670;2024-01-15T08:33:23;1.30;99.90
19017;DHT22;9641;51.494;6.670;2024-01-15T08:35:50;1.30;99.90
19017;DHT22;9641;51.494;6.670;2024-01-15T08:38:19;1.30;99.90
19017;DHT22;9641;51.494;6.670;2024-01-15T08:40:46;1.30;99.90
19017;DHT22;9641;51.494;6.670;2024-01-15T08:43:13;1.30;99.90
19017;DHT22;9641;51.494;6.670;2024-01-15T08:45:42;1.10;99.90
19017;DHT22;9641;51.494;6.670;2024-01-15T08:48:11;1.00;99.90
19017;DHT22;9641;51.494;6.670;2024-01-15T08:50:38;0.90;99.90
19017;DHT22;9641;51.494;6.670;2024-01-15T08:53:06;0.90;99.90
19017;DHT22;9641;51.494;6.670;2024-01-15T08:55:34;1.00;99.90
19017;DHT22;9641;51.494;6.670;2024-01-15T08:58:02;0.90;99.90
19017;DHT22;9641;51.494;6.670;2024-01-15T09:00:30;0.90;99.90
19017;DHT22;9641;51.494;6.670;2024-01-15T09:02:59;0.90;99.90
19017;DHT22;9641;51.494;6.670;2024-01-15T09:05:26;1.00;99.90
19017;DHT22;9641;51.494;6.670;2024-01-15T09:07:53;1.00;99.90
19017;DHT22;9641;51.494;6.670;2024-01-15T09:10:21;1.00;99.90
19017;DHT22;9641;51.494;6.670;2024-01-15T09:12:51;1.10;99.90
19017;DHT22;9641;51.494;6.670;2024-01-15T09:15:21;1.10;99.90
19017;DHT22;9641;51.494;6.670;2024-01-15T09:17:49;1.10;99.90
19017;DHT22;9641;51.494;6.670;2024-01-15T09:20:18;1.20;99.90
19017;DHT22;9641;51.494;6.670;2024-01-15T09:22:45;1.20;99.90
19017;DHT22;9641;51.494;6.670;2024-01-15T09:25:12;1.20;99.90
19017;DHT22;9641;51.494;6.670;2024-01-15T09:27:40;1.20;99.90
19017;DHT22;9641;51.494;6.670;2024-01-15T09:30:08;1.20;99.90
19017;DHT22;9641;51.494;6.670;2024-01-15T09:32:38;1.30;99.90
19017;DHT22;9641;51.494;6.670;2024-01-15T09:35:07;1.20;99.90
19017;DHT22;9641;51.494;6.670;2024-01-15T09:37:36;1.30;99.90
19017;DHT22;9641;51.494;6.670;2024-01-15T09:40:08;1.30;99.90
19017;DHT22;9641;51.494;6.670;2024-01-15T09:42:40;1.30;99.90
19017;DHT22;9641;51.494;6.670;2024-01-15T09:45:09;1.30;99.90
19017;DHT22;9641;51.494;6.670;2024-01-15T09:47:38;1.30;99.90
19017;DHT22;9641;51.494;6.670;2024-01-15T09:50:08;1.30;99.90
19017;DHT22;9641;51.494;6.670;2024-01-15T09:52:37;1.30;99.90
19017;DHT22;9641;51.494;6.670;2024-01-15T09:55:09;1.30;99.90
19017;DHT22;9641;51.494;6.670;2024-01-15T09:57:37;1.30;99.90
19017;DHT22;9641;51.494;6.670;2024-01-15T10:00:08;1.40;99.90
19017;DHT22;9641;51.494;6.670;2024-01-15T10:02:36;1.40;99.90
19017;DHT22;9641;51.494;6.670;2024-01-15T10:05:07;1.40;99.90
19017;DHT22;9641;51.494;6.670;2024-01-15T10:07:37;1.40;99.90
19017;DHT22;9641;51.494;6.670;2024-01-15T10:10:06;1.40;99.90
19017;DHT22;9641;51.494;6.670;2024-01-15T10:12:38;1.40;99.90
19017;DHT22;9641;51.494;6.670;2024-01-15T10:15:08;1.50;99.90
19017;DHT22;9641;51.494;6.670;2024-01-15T10:17:37;1.60;99.90
19017;DHT22;9641;51.494;6.670;2024-01-15T10:20:08;1.50;99.90
19017;DHT22;9641;51.494;6.670;2024-01-15T10:22:41;1.60;99.90
19017;DHT22;9641;51.494;6.670;2024-01-15T10:25:13;1.70;99.90
19017;DHT22;9641;51.494;6.670;2024-01-15T10:27:41;1.60;99.90
19017;DHT22;9641;51.494;6.670;2024-01-15T10:30:09;1.60;99.90
19017;DHT22;9641;51.494;6.670;2024-01-15T10:32:36;1.50;99.90
19017;DHT22;9641;51.494;6.670;2024-01-15T10:35:06;1.50;99.90
19017;DHT22;9641;51.494;6.670;2024-01-15T10:37:45;1.50;99.90
19017;DHT22;9641;51.494;6.670;2024-01-15T10:40:14;1.50;99.90
19017;DHT22;9641;51.494;6.670;2024-01-15T10:42:44;1.50;99.90
19017;DHT22;9641;51.494;6.670;2024-01-15T10:45:13;1.60;99.90
19017;DHT22;9641;51.494;6.670;2024-01-15T10:47:44;1.70;99.90
19017;DHT22;9641;51.494;6.670;2024-01-15T10:50:13;1.70;99.90
19017;DHT22;9641;51.494;6.670;2024-01-15T10:52:44;1.70;99.90
19017;DHT22;9641;51.494;6.670;2024-01-15T10:55:16;1.90;99.90
19017;DHT22;9641;51.494;6.670;2024-01-15T10:57:45;2.10;99.90
19017;DHT22;9641;51.494;6.670;2024-01-15T11:00:13;2.30;99.90
19017;DHT22;9641;51.494;6.670;2024-01-15T11:02:41;2.40;99.90
19017;DHT22;9641;51.494;6.670;2024-01-15T11:05:12;2.50;99.90
19017;DHT22;9641;51.494;6.670;2024-01-15T11:07:40;2.60;99.90
19017;DHT22;9641;51.494;6.670;2024-01-15T11:10:39;2.40;99.90
19017;DHT22;9641;51.494;6.670;2024-01-15T11:13:09;2.20;99.90
19017;DHT22;9641;51.494;6.670;2024-01-15T11:15:55;2.20;99.90
19017;DHT22;9641;51.494;6.670;2024-01-15T11:18:22;2.10;99.90
19017;DHT22;9641;51.494;6.670;2024-01-15T11:21:22;2.20;99.90
19017;DHT22;9641;51.494;6.670;2024-01-15T11:23:54;2.30;99.90
19017;DHT22;9641;51.494;6.670;2024-01-15T11:26:32;2.10;99.90
19017;DHT22;9641;51.494;6.670;2024-01-15T11:29:01;2.10;99.90
19017;DHT22;9641;51.494;6.670;2024-01-15T11:34:12;2.00;99.90
19017;DHT22;9641;51.494;6.670;2024-01-15T11:37:01;2.00;99.90
19017;DHT22;9641;51.494;6.670;2024-01-15T11:39:44;2.00;99.90
19017;DHT22;9641;51.494;6.670;2024-01-15T11:42:14;2.00;99.90
19017;DHT22;9641;51.494;6.670;2024-01-15T11:44:43;2.00;99.90
19017;DHT22;9641;51.494;6.670;2024-01-15T11:47:11;2.10;99.90
19017;DHT22;9641;51.494;6.670;2024-01-15T11:49:58;2.20;99.90
19017;DHT22;9641;51.494;6.670;2024-01-15T11:52:27;2.50;99.90
19017;DHT22;9641;51.494;6.670;2024-01-15T11:55:01;2.60;99.90
19017;DHT22;9641;51.494;6.670;2024-01-15T11:57:41;2.70;99.90
19017;DHT22;9641;51.494;6.670;2024-01-15T12:00:11;3.00;99.90
19017;DHT22;9641;51.494;6.670;2024-01-15T12:02:39;3.30;99.90
19017;DHT22;9641;51.494;6.670;2024-01-15T12:05:08;3.30;99.90
19017;DHT22;9641;51.494;6.670;2024-01-15T12:07:36;3.50;99.90
19017;DHT22;9641;51.494;6.670;2024-01-15T12:10:08;4.10;99.90
19017;DHT22;9641;51.494;6.670;2024-01-15T12:12:52;4.10;99.90
19017;DHT22;9641;51.494;6.670;2024-01-15T12:15:21;4.50;99.90
19017;DHT22;9641;51.494;6.670;2024-01-15T12:17:51;5.40;99.90
19017;DHT22;9641;51.494;6.670;2024-01-15T12:20:18;5.50;99.90
19017;DHT22;9641;51.494;6.670;2024-01-15T12:22:48;5.10;99.90
19017;DHT22;9641;51.494;6.670;2024-01-15T12:25:17;4.60;99.90
19017;DHT22;9641;51.494;6.670;2024-01-15T12:27:50;4.20;99.90
19017;DHT22;9641;51.494;6.670;2024-01-15T12:30:18;4.40;99.90
19017;DHT22;9641;51.494;6.670;2024-01-15T12:32:45;4.30;99.90
19017;DHT22;9641;51.494;6.670;2024-01-15T12:35:16;3.70;99.90
19017;DHT22;9641;51.494;6.670;2024-01-15T12:37:44;3.60;99.90
19017;DHT22;9641;51.494;6.670;2024-01-15T12:40:30;3.60;99.90
19017;DHT22;9641;51.494;6.670;2024-01-15T12:43:05;3.50;99.90
19017;DHT22;9641;51.494;6.670;2024-01-15T12:45:34;3.40;99.90
19017;DHT22;9641;51.494;6.670;2024-01-15T12:48:04;3.10;99.90
19017;DHT22;9641;51.494;6.670;2024-01-15T12:50:33;3.10;99.90
19017;DHT22;9641;51.494;6.670;2024-01-15T12:53:01;3.00;99.90
19017;DHT22;9641;51.494;6.670;2024-01-15T12:55:39;3.00;99.90
19017;DHT22;9641;51.494;6.670;2024-01-15T12:58:08;2.90;99.90
19017;DHT22;9641;51.494;6.670;2024-01-15T13:00:36;2.80;99.90
19017;DHT22;9641;51.494;6.670;2024-01-15T13:03:04;2.90;99.90
19017;DHT22;9641;51.494;6.670;2024-01-15T13:05:32;3.00;99.90
19017;DHT22;9641;51.494;6.670;2024-01-15T13:07:59;2.90;99.90
19017;DHT22;9641;51.494;6.670;2024-01-15T13:10:26;2.80;99.90
19017;DHT22;9641;51.494;6.670;2024-01-15T13:12:55;2.60;99.90
19017;DHT22;9641;51.494;6.670;2024-01-15T13:15:23;2.60;99.90
19017;DHT22;9641;51.494;6.670;2024-01-15T13:17:50;2.60;99.90
19017;DHT22;9641;51.494;6.670;2024-01-15T13:20:17;2.70;99.90
19017;DHT22;9641;51.494;6.670;2024-01-15T13:22:44;2.80;99.90
19017;DHT22;9641;51.494;6.670;2024-01-15T13:25:11;2.90;99.90
19017;DHT22;9641;51.494;6.670;2024-01-15T13:27:38;2.80;99.90
19017;DHT22;9641;51.494;6.670;2024-01-15T13:30:06;2.80;99.90
19017;DHT22;9641;51.494;6.670;2024-01-15T13:32:35;2.80;99.90
19017;DHT22;9641;51.494;6.670;2024-01-15T13:35:02;2.80;99.90
19017;DHT22;9641;51.494;6.670;2024-01-15T13:37:33;2.80;99.90
19017;DHT22;9641;51.494;6.670;2024-01-15T13:40:00;3.00;99.90
19017;DHT22;9641;51.494;6.670;2024-01-15T13:42:27;3.30;99.90
19017;DHT22;9641;51.494;6.670;2024-01-15T13:44:54;3.50;99.90
19017;DHT22;9641;51.494;6.670;2024-01-15T13:47:21;3.30;99.90
19017;DHT22;9641;51.494;6.670;2024-01-15T13:49:49;3.00;99.90
19017;DHT22;9641;51.494;6.670;2024-01-15T13:52:16;2.80;99.90
19017;DHT22;9641;51.494;6.670;2024-01-15T13:54:43;2.70;99.90
19017;DHT22;9641;51.494;6.670;2024-01-15T13:57:10;2.40;99.90
19017;DHT22;9641;51.494;6.670;2024-01-15T13:59:37;2.20;99.90
19017;DHT22;9641;51.494;6.670;2024-01-15T14:02:04;2.20;99.90
19017;DHT22;9641;51.494;6.670;2024-01-15T14:04:31;2.10;99.90
19017;DHT22;9641;51.494;6.670;2024-01-15T14:07:00;2.10;99.90
19017;DHT22;9641;51.494;6.670;2024-01-15T14:09:26;2.00;99.90
19017;DHT22;9641;51.494;6.670;2024-01-15T14:11:53;2.00;99.90
19017;DHT22;9641;51.494;6.670;2024-01-15T14:14:20;2.00;99.90
19017;DHT22;9641;51.494;6.670;2024-01-15T14:16:48;2.00;99.90
19017;DHT22;9641;51.494;6.670;2024-01-15T14:19:14;2.10;99.90
19017;DHT22;9641;51.494;6.670;2024-01-15T14:21:41;2.30;99.90
19017;DHT22;9641;51.494;6.670;2024-01-15T14:24:10;2.20;99.90
19017;DHT22;9641;51.494;6.670;2024-01-15T14:26:37;2.10;99.90
19017;DHT22;9641;51.494;6.670;2024-01-15T14:29:04;2.20;99.90
19017;DHT22;9641;51.494;6.670;2024-01-15T14:31:32;2.30;99.90
19017;DHT22;9641;51.494;6.670;2024-01-15T14:33:59;2.30;99.90
19017;DHT22;9641;51.494;6.670;2024-01-15T14:36:28;2.50;99.90
19017;DHT22;9641;51.494;6.670;2024-01-15T14:38:55;2.70;99.90
19017;DHT22;9641;51.494;6.670;2024-01-15T14:41:23;2.70;99.90
19017;DHT22;9641;51.494;6.670;2024-01-15T14:43:50;2.50;99.90
19017;DHT22;9641;51.494;6.670;2024-01-15T14:46:17;2.40;99.90
19017;DHT22;9641;51.494;6.670;2024-01-15T14:48:44;2.20;99.90
19017;DHT22;9641;51.494;6.670;2024-01-15T14:51:12;2.10;99.90
19017;DHT22;9641;51.494;6.670;2024-01-15T14:53:39;2.10;99.90
19017;DHT22;9641;51.494;6.670;2024-01-15T14:56:06;2.00;99.90
19017;DHT22;9641;51.494;6.670;2024-01-15T14:58:34;2.00;99.90
19017;DHT22;9641;51.494;6.670;2024-01-15T15:01:01;1.90;99.90
19017;DHT22;9641;51.494;6.670;2024-01-15T15:03:29;1.90;99.90
19017;DHT22;9641;51.494;6.670;2024-01-15T15:05:56;1.90;99.90
19017;DHT22;9641;51.494;6.670;2024-01-15T15:08:23;1.80;99.90
19017;DHT22;9641;51.494;6.670;2024-01-15T15:10:54;1.80;99.90
19017;DHT22;9641;51.494;6.670;2024-01-15T15:13:22;1.80;99.90
19017;DHT22;9641;51.494;6.670;2024-01-15T15:16:08;1.80;99.90
19017;DHT22;9641;51.494;6.670;2024-01-15T15:18:36;1.90;99.90
19017;DHT22;9641;51.494;6.670;2024-01-15T15:21:04;1.90;99.90
19017;DHT22;9641;51.494;6.670;2024-01-15T15:23:35;1.90;99.90
19017;DHT22;9641;51.494;6.670;2024-01-15T15:26:05;1.90;99.90
19017;DHT22;9641;51.494;6.670;2024-01-15T15:28:32;1.90;99.90
19017;DHT22;9641;51.494;6.670;2024-01-15T15:31:02;1.80;99.90
19017;DHT22;9641;51.494;6.670;2024-01-15T15:33:30;1.70;99.90
19017;DHT22;9641;51.494;6.670;2024-01-15T15:35:57;1.70;99.90
19017;DHT22;9641;51.494;6.670;2024-01-15T15:38:30;1.70;99.90
19017;DHT22;9641;51.494;6.670;2024-01-15T15:41:01;1.70;99.90
19017;DHT22;9641;51.494;6.670;2024-01-15T15:43:32;1.60;99.90
19017;DHT22;9641;51.494;6.670;2024-01-15T15:46:00;1.60;99.90
19017;DHT22;9641;51.494;6.670;2024-01-15T15:48:31;1.60;99.90
19017;DHT22;9641;51.494;6.670;2024-01-15T15:51:00;1.60;99.90
19017;DHT22;9641;51.494;6.670;2024-01-15T15:53:40;1.50;99.90
19017;DHT22;9641;51.494;6.670;2024-01-15T15:56:07;1.30;99.90
19017;DHT22;9641;51.494;6.670;2024-01-15T15:58:39;1.30;99.90
19017;DHT22;9641;51.494;6.670;2024-01-15T16:01:07;1.30;99.90
19017;DHT22;9641;51.494;6.670;2024-01-15T16:03:36;1.30;99.90
19017;DHT22;9641;51.494;6.670;2024-01-15T16:06:04;1.20;99.90
19017;DHT22;9641;51.494;6.670;2024-01-15T16:08:34;1.30;99.90
19017;DHT22;9641;51.494;6.670;2024-01-15T16:11:02;1.30;99.90
19017;DHT22;9641;51.494;6.670;2024-01-15T16:13:29;1.20;99.90
19017;DHT22;9641;51.494;6.670;2024-01-15T16:15:56;1.20;99.90